• Join FlightAware (Why Join?)
  • Login
  • US Flag 
07:48AM EDT


 

Airport Tracker/Info


-or-


 

Live Flight TrackerFlight Track Log ✈ DLA1905 ✈ 03-May-2013 ✈ LIMF / TRN - EDDM / MUC

Flight Track Log - Related Links

Times and Time Zones

All times are in EDT time to prevent confusion due to time zone crossing. See the DLA1905 flight status page for this flight to view local times or setup timezone preferences in your user account.

Time Position Orientation Groundspeed Altitude Reporting Facility
EDT Latitude Longitude Course Direction KTS MPH feet Rate Location/Type
01:26AM 46.6740 9.4981 40° Northeast  Level Estimated
01:27AM 46.7347 9.5773 42° Northeast  Level Estimated
01:28AM 46.7954 9.6566 42° Northeast  Level Estimated
01:29AM 46.8560 9.7362 42° Northeast  Level Estimated
01:30AM 46.9166 9.8159 42° Northeast  Level Estimated
01:31AM 46.9771 9.8958 42° Northeast  Level Estimated
01:32AM 47.0376 9.9759 42° Northeast  Level Estimated
01:33AM 47.0979 10.0561 42° Northeast  Level Estimated
01:34AM 47.1583 10.1366 42° Northeast  Level Estimated
01:35AM 47.2279 10.2298 42° Northeast  Level Estimated
01:36AM 47.2975 10.3232 42° Northeast  Level Estimated
01:37AM 47.3670 10.4169 42° Northeast  Level Estimated
01:38AM 47.4364 10.5108 42° Northeast  Level Estimated
01:39AM 47.5058 10.6050 43° Northeast  Level Estimated
01:40AM 47.5751 10.6994 43° Northeast  Level Estimated
01:41AM 47.6442 10.7941 43° Northeast  Level Estimated
01:42AM 47.7134 10.8890 43° Northeast  Level Estimated
01:43AM 47.7824 10.9842 43° Northeast  Level Estimated
01:44AM 47.8514 11.0796 43° Northeast  Level Estimated
01:45AM 47.9202 11.1753 43° Northeast  Level Estimated
01:46AM 47.9890 11.2712 43° Northeast  Level Estimated
01:47AM 48.0578 11.3674 43° Northeast  Level Estimated
01:48AM 48.1264 11.4639 43° Northeast  Level Estimated
01:49AM 48.1950 11.5606 43° Northeast  Level Estimated
01:50AM 48.2634 11.6575 43° Northeast  Level Estimated
01:51AM 48.3318 11.7548 43° Northeast  Level Estimated
01:52AM 48.3538 11.7861 43° Northeast  Level Estimated
01:53AM 48.3538 11.7861 318° Northwest  Level Estimated
01:54AM 48.3538 11.7861 318° Northwest  Level Estimated
01:55AM 48.3538 11.7861 318° Northwest  Level Estimated
01:56AM 48.3538 11.7861 318° Northwest  Level Estimated
01:57AM 48.3538 11.7861 318° Northwest  Level Estimated
01:58AM 48.3538 11.7861 318° Northwest  Level Estimated
01:59AM 48.3538 11.7861 318° Northwest  Level Estimated
02:00AM 48.3538 11.7861 318° Northwest  Level Estimated
02:01AM 48.3538 11.7861 318° Northwest  Level Estimated
02:02AM 48.3538 11.7861 318° Northwest  Level Estimated
02:03AM 48.3538 11.7861 318° Northwest  Level Estimated